Sheldon, North Dakota
Current Conditions -  °F | °C
As of 1:35 PM on Friday 31 Oct 2014 (Local Time) from KGWR Reporting Station
Clear Clear  
Wind Chill: 29°   Ceiling: Unl
Heat Index: 36°   Visibility: 10mi
Dew Point: 21°   Wind: 8mph
Humidity: 56%   Direction: 170°S
Pressure: 30.52"   Gusts: NA
Location:  46.59°N, 97.49°W
Report Text: KGWR 311835Z AUTO 17007KT 10SM CLR 02/M06 A3052 RMK A01 P000
Loading
Personal Weather Stations






























Interactive Weather Map
Tropical Storm Tracking
New forecast layout! Learn more

10-Day Weather Forecast

Advertisements
Track Severe Weather on mobile